createdAt,value
2023-01-28T00:00:38.869Z,0.80
2023-01-28T00:03:05.538Z,0.80
2023-01-28T00:05:32.399Z,0.80
2023-01-28T00:07:59.145Z,0.80
2023-01-28T00:10:25.926Z,0.80
2023-01-28T00:12:52.576Z,0.80
2023-01-28T00:15:19.207Z,0.80
2023-01-28T00:17:46.053Z,0.70
2023-01-28T00:20:12.785Z,0.80
2023-01-28T00:22:39.604Z,0.70
2023-01-28T00:25:06.410Z,0.70
2023-01-28T00:27:33.047Z,0.70
2023-01-28T00:29:59.692Z,0.70
2023-01-28T00:32:26.413Z,0.80
2023-01-28T00:34:53.060Z,0.70
2023-01-28T00:37:19.717Z,0.70
2023-01-28T00:39:46.369Z,0.70
2023-01-28T00:42:13.223Z,0.70
2023-01-28T00:44:40.010Z,0.70
2023-01-28T00:47:06.738Z,0.70
2023-01-28T00:49:33.471Z,0.70
2023-01-28T00:52:01.820Z,0.70
2023-01-28T00:54:28.553Z,0.70
2023-01-28T00:56:55.358Z,0.60
2023-01-28T00:59:22.139Z,0.70
2023-01-28T01:01:49.063Z,0.60
2023-01-28T01:04:26.978Z,0.60
2023-01-28T01:06:53.787Z,0.60
2023-01-28T01:09:20.493Z,0.60
2023-01-28T01:11:47.187Z,0.60
2023-01-28T01:14:13.872Z,0.60
2023-01-28T01:16:40.588Z,0.60
2023-01-28T01:19:09.466Z,0.60
2023-01-28T01:21:36.271Z,0.60
2023-01-28T01:24:03.002Z,0.70
2023-01-28T01:26:30.001Z,0.70
2023-01-28T01:29:00.201Z,0.70
2023-01-28T01:31:26.977Z,0.70
2023-01-28T01:33:53.716Z,0.70
2023-01-28T01:36:21.799Z,0.70
2023-01-28T01:38:48.820Z,0.60
2023-01-28T01:41:23.499Z,0.60
2023-01-28T01:43:55.253Z,0.60
2023-01-28T01:46:37.791Z,0.60
2023-01-28T01:49:27.610Z,0.60
2023-01-28T01:52:03.251Z,0.60
2023-01-28T01:54:32.051Z,0.60
2023-01-28T01:56:59.522Z,0.60
2023-01-28T01:59:28.474Z,0.60
2023-01-28T02:01:55.940Z,0.60
2023-01-28T02:04:24.913Z,0.60
2023-01-28T02:06:52.061Z,0.60
2023-01-28T02:09:32.384Z,0.60
2023-01-28T02:12:01.563Z,0.60
2023-01-28T02:14:32.135Z,0.60
2023-01-28T02:17:00.161Z,0.50
2023-01-28T02:19:29.564Z,0.50
2023-01-28T02:22:16.694Z,0.50
2023-01-28T02:24:52.151Z,0.50
2023-01-28T02:27:18.897Z,0.50
2023-01-28T02:29:56.326Z,0.50
2023-01-28T02:32:39.620Z,0.50
2023-01-28T02:35:09.822Z,0.50
2023-01-28T02:37:46.144Z,0.50
2023-01-28T02:40:22.963Z,0.50
2023-01-28T02:42:49.668Z,0.50
2023-01-28T02:45:51.649Z,0.50
2023-01-28T02:48:20.935Z,0.50
2023-01-28T02:50:55.828Z,0.50
2023-01-28T02:53:41.051Z,0.50
2023-01-28T02:56:14.243Z,0.50
2023-01-28T02:59:31.685Z,0.50
2023-01-28T03:02:03.624Z,0.50
2023-01-28T03:04:33.783Z,0.50
2023-01-28T03:07:04.332Z,0.50
2023-01-28T03:09:31.749Z,0.40
2023-01-28T03:12:18.752Z,0.40
2023-01-28T03:15:07.246Z,0.40
2023-01-28T03:18:06.540Z,0.40
2023-01-28T03:20:56.421Z,0.40
2023-01-28T03:23:44.045Z,0.30
2023-01-28T03:26:50.363Z,0.30
2023-01-28T03:29:36.483Z,0.30
2023-01-28T03:32:25.118Z,0.30
2023-01-28T03:35:11.592Z,0.30
2023-01-28T03:37:38.664Z,0.30
2023-01-28T03:40:11.619Z,0.30
2023-01-28T03:42:38.317Z,0.30
2023-01-28T03:45:27.927Z,0.30
2023-01-28T03:47:55.007Z,0.30
2023-01-28T03:50:21.894Z,0.30
2023-01-28T03:53:13.530Z,0.30
2023-01-28T03:55:47.178Z,0.30
2023-01-28T03:58:14.061Z,0.30
2023-01-28T04:00:43.856Z,0.30
2023-01-28T04:03:17.080Z,0.30
2023-01-28T04:06:01.652Z,0.30
2023-01-28T04:08:49.216Z,0.20
2023-01-28T04:11:48.432Z,0.20
2023-01-28T04:14:21.589Z,0.20
2023-01-28T04:16:55.097Z,0.20
2023-01-28T04:19:24.144Z,0.20
2023-01-28T04:21:53.975Z,0.20
2023-01-28T04:24:21.743Z,0.20
2023-01-28T04:26:48.654Z,0.20
2023-01-28T04:29:16.011Z,0.20
2023-01-28T04:31:42.876Z,0.20
2023-01-28T04:34:33.804Z,0.20
2023-01-28T04:37:32.578Z,0.20
2023-01-28T04:40:12.351Z,0.20
2023-01-28T04:42:53.814Z,0.20
2023-01-28T04:45:30.979Z,0.10
2023-01-28T04:48:17.112Z,0.10
2023-01-28T04:50:50.809Z,0.10
2023-01-28T04:53:47.387Z,0.10
2023-01-28T04:56:24.891Z,0.20
2023-01-28T04:58:51.899Z,0.10
2023-01-28T05:01:18.985Z,0.10
2023-01-28T05:03:45.734Z,0.10
2023-01-28T05:06:21.355Z,0.10
2023-01-28T05:08:50.468Z,0.10
2023-01-28T05:11:17.307Z,0.10
2023-01-28T05:13:47.312Z,0.10
2023-01-28T05:16:14.539Z,0.10
2023-01-28T05:18:44.467Z,0.10
2023-01-28T05:21:14.548Z,0.10
2023-01-28T05:23:41.281Z,0.10
2023-01-28T05:26:08.200Z,0.00
2023-01-28T05:28:34.992Z,0.10
2023-01-28T05:31:05.437Z,0.00
2023-01-28T05:33:32.505Z,0.00
2023-01-28T05:35:59.617Z,0.00
2023-01-28T05:38:26.248Z,0.00
2023-01-28T05:40:53.208Z,0.00
2023-01-28T05:43:19.877Z,0.10
2023-01-28T05:46:12.470Z,0.00
2023-01-28T05:49:02.429Z,0.00
2023-01-28T05:51:48.360Z,0.00
2023-01-28T05:54:18.272Z,0.00
2023-01-28T05:56:45.032Z,0.00
2023-01-28T05:59:12.009Z,0.00
2023-01-28T06:01:41.999Z,0.00
2023-01-28T06:04:08.725Z,0.00
2023-01-28T06:06:35.493Z,0.00
2023-01-28T06:09:05.114Z,0.00
2023-01-28T06:11:31.972Z,0.00
2023-01-28T06:14:03.003Z,0.00
2023-01-28T06:16:52.867Z,0.00
2023-01-28T06:19:24.911Z,0.00
2023-01-28T06:21:51.573Z,0.00
2023-01-28T06:24:19.640Z,0.00
2023-01-28T06:26:46.371Z,0.00
2023-01-28T06:29:13.507Z,0.00
2023-01-28T06:31:40.168Z,0.00
2023-01-28T06:34:06.973Z,0.00
2023-01-28T06:36:33.813Z,0.00
2023-01-28T06:39:00.688Z,0.00
2023-01-28T06:41:27.390Z,0.10
2023-01-28T06:43:54.051Z,0.10
2023-01-28T06:46:21.238Z,0.10
2023-01-28T06:48:48.047Z,0.10
2023-01-28T06:51:14.719Z,0.10
2023-01-28T06:53:41.428Z,0.00
2023-01-28T06:56:08.609Z,0.00
2023-01-28T06:58:35.434Z,0.00
2023-01-28T07:01:02.351Z,0.00
2023-01-28T07:03:29.432Z,0.00
2023-01-28T07:05:56.165Z,0.00
2023-01-28T07:08:22.832Z,0.00
2023-01-28T07:10:49.785Z,0.00
2023-01-28T07:13:16.474Z,0.00
2023-01-28T07:15:43.194Z,-0.10
2023-01-28T07:18:10.103Z,-0.10
2023-01-28T07:20:36.856Z,-0.10
2023-01-28T07:23:03.591Z,-0.10
2023-01-28T07:25:30.781Z,-0.10
2023-01-28T07:27:57.533Z,-0.10
2023-01-28T07:30:24.717Z,-0.10
2023-01-28T07:32:55.365Z,-0.10
2023-01-28T07:35:22.606Z,0.00
2023-01-28T07:37:56.200Z,0.00
2023-01-28T07:40:23.230Z,0.00
2023-01-28T07:42:49.968Z,0.00
2023-01-28T07:45:21.507Z,0.00
2023-01-28T07:47:55.405Z,0.10
2023-01-28T07:50:22.028Z,0.10
2023-01-28T07:52:48.697Z,0.10
2023-01-28T07:55:15.513Z,0.20
2023-01-28T07:57:51.218Z,0.20
2023-01-28T08:00:18.450Z,0.20
2023-01-28T08:02:47.972Z,0.20
2023-01-28T08:05:15.773Z,0.30
2023-01-28T08:07:42.557Z,0.30
2023-01-28T08:10:10.444Z,0.40
2023-01-28T08:12:37.104Z,0.40
2023-01-28T08:15:05.430Z,0.50
2023-01-28T08:17:32.329Z,0.60
2023-01-28T08:19:59.030Z,0.60
2023-01-28T08:22:26.442Z,0.70
2023-01-28T08:24:53.364Z,0.80
2023-01-28T08:27:20.036Z,0.90
2023-01-28T08:29:46.682Z,1.00
2023-01-28T08:32:13.502Z,1.00
2023-01-28T08:34:40.154Z,1.10
2023-01-28T08:37:06.835Z,1.10
2023-01-28T08:39:33.493Z,1.10
2023-01-28T08:42:00.334Z,1.10
2023-01-28T08:44:26.958Z,1.20
2023-01-28T08:46:53.658Z,1.20
2023-01-28T08:49:22.386Z,1.20
2023-01-28T08:51:49.168Z,1.30
2023-01-28T08:54:15.793Z,1.40
2023-01-28T08:56:45.371Z,1.40
2023-01-28T08:59:11.994Z,1.60
2023-01-28T09:01:38.819Z,1.60
2023-01-28T09:04:05.571Z,1.60
2023-01-28T09:06:32.512Z,1.70
2023-01-28T09:08:59.847Z,1.70
2023-01-28T09:11:27.475Z,1.70
2023-01-28T09:13:54.445Z,1.70
2023-01-28T09:16:21.086Z,1.60
2023-01-28T09:18:48.495Z,1.60
2023-01-28T09:21:15.194Z,1.50
2023-01-28T09:23:41.912Z,1.50
2023-01-28T09:26:09.402Z,1.50
2023-01-28T09:28:36.136Z,1.50
2023-01-28T09:31:04.150Z,1.50
2023-01-28T09:33:31.191Z,1.40
2023-01-28T09:36:01.345Z,1.50
2023-01-28T09:38:28.902Z,1.40
2023-01-28T09:40:56.228Z,1.50
2023-01-28T09:43:45.060Z,1.40
2023-01-28T09:46:13.314Z,1.40
2023-01-28T09:48:41.823Z,1.50
2023-01-28T09:51:17.539Z,1.50
2023-01-28T09:53:49.880Z,1.60
2023-01-28T09:56:25.579Z,1.60
2023-01-28T09:58:52.444Z,1.60
2023-01-28T10:01:19.160Z,1.70
2023-01-28T10:03:45.836Z,1.70
2023-01-28T10:06:31.836Z,1.70
2023-01-28T10:09:16.401Z,1.70
2023-01-28T10:11:49.926Z,1.80
2023-01-28T10:14:28.786Z,1.90
2023-01-28T10:16:57.507Z,1.90
2023-01-28T10:19:27.814Z,2.00
2023-01-28T10:22:05.724Z,2.10
2023-01-28T10:24:35.445Z,2.00
2023-01-28T10:27:22.612Z,2.00
2023-01-28T10:29:50.055Z,2.00
2023-01-28T10:32:16.745Z,2.00
2023-01-28T10:34:43.399Z,2.10
2023-01-28T10:37:12.610Z,2.10
2023-01-28T10:39:39.299Z,2.00
2023-01-28T10:42:16.016Z,2.10
2023-01-28T10:44:44.377Z,2.10
2023-01-28T10:47:14.731Z,2.20
2023-01-28T10:49:44.571Z,2.20
2023-01-28T10:52:12.237Z,2.20
2023-01-28T10:54:39.056Z,2.20
2023-01-28T10:57:10.107Z,2.10
2023-01-28T10:59:41.810Z,2.10
2023-01-28T11:02:32.539Z,2.00
2023-01-28T11:05:04.796Z,2.00
2023-01-28T11:07:31.513Z,2.00
2023-01-28T11:09:58.228Z,2.00
2023-01-28T11:12:26.870Z,1.90
2023-01-28T11:14:55.351Z,1.90
2023-01-28T11:17:24.729Z,1.90
2023-01-28T11:19:53.607Z,1.90
2023-01-28T11:22:39.717Z,1.90
2023-01-28T11:25:16.113Z,1.90
2023-01-28T11:27:46.891Z,1.90
2023-01-28T11:30:21.047Z,1.90
2023-01-28T11:32:54.558Z,1.90
2023-01-28T11:35:30.150Z,1.90
2023-01-28T11:37:57.805Z,1.90
2023-01-28T11:40:25.380Z,1.90
2023-01-28T11:42:53.423Z,2.00
2023-01-28T11:45:25.701Z,1.90
2023-01-28T11:48:04.995Z,2.00
2023-01-28T11:50:37.352Z,2.00
2023-01-28T11:53:21.846Z,2.00
2023-01-28T11:56:10.003Z,2.00
2023-01-28T11:58:36.712Z,2.00
2023-01-28T12:01:06.415Z,2.00
2023-01-28T12:03:33.057Z,2.00
2023-01-28T12:06:40.073Z,1.90
2023-01-28T12:09:30.945Z,2.00
2023-01-28T12:12:12.411Z,1.90
2023-01-28T12:14:42.077Z,2.00
2023-01-28T12:17:32.088Z,2.00
2023-01-28T12:20:05.615Z,2.00
2023-01-28T12:22:38.614Z,2.10
2023-01-28T12:25:17.407Z,2.10
2023-01-28T12:27:50.636Z,2.10
2023-01-28T12:30:43.665Z,2.10
2023-01-28T12:33:10.376Z,2.10
2023-01-28T12:35:40.113Z,2.10
2023-01-28T12:38:19.264Z,2.00
2023-01-28T12:41:04.820Z,1.90
2023-01-28T12:43:54.040Z,1.90
2023-01-28T12:46:37.918Z,1.90
2023-01-28T12:49:10.278Z,1.80
2023-01-28T12:51:39.993Z,1.70
2023-01-28T12:54:12.419Z,1.70
2023-01-28T12:56:44.479Z,1.60
2023-01-28T12:59:16.826Z,1.60
2023-01-28T13:01:55.653Z,1.50
2023-01-28T13:04:34.095Z,1.50
2023-01-28T13:07:11.013Z,1.50
2023-01-28T13:09:39.197Z,1.50
2023-01-28T13:12:06.320Z,1.40
2023-01-28T13:14:33.733Z,1.40
2023-01-28T13:17:24.560Z,1.40
2023-01-28T13:19:51.267Z,1.30
2023-01-28T13:22:29.170Z,1.30
2023-01-28T13:24:55.811Z,1.30
2023-01-28T13:27:29.139Z,1.40
2023-01-28T13:30:04.246Z,1.40
2023-01-28T13:32:32.742Z,1.40
2023-01-28T13:35:01.965Z,1.40
2023-01-28T13:37:33.426Z,1.30
2023-01-28T13:40:02.985Z,1.20
2023-01-28T13:42:30.589Z,1.20
2023-01-28T13:45:14.285Z,1.20
2023-01-28T13:47:44.396Z,1.20
2023-01-28T13:50:24.830Z,1.20
2023-01-28T13:53:10.279Z,1.10
2023-01-28T13:55:44.767Z,1.00
2023-01-28T13:58:25.390Z,0.90
2023-01-28T14:01:09.856Z,0.90
2023-01-28T14:03:44.634Z,0.90
2023-01-28T14:06:11.455Z,1.00
2023-01-28T14:08:38.107Z,1.00
2023-01-28T14:11:23.527Z,1.00
2023-01-28T14:13:56.335Z,1.00
2023-01-28T14:16:33.907Z,1.00
2023-01-28T14:19:01.646Z,1.00
2023-01-28T14:21:30.909Z,0.90
2023-01-28T14:23:58.272Z,0.90
2023-01-28T14:26:24.900Z,0.90
2023-01-28T14:29:11.834Z,0.90
2023-01-28T14:31:39.295Z,1.00
2023-01-28T14:34:18.752Z,1.00
2023-01-28T14:36:46.297Z,0.90
2023-01-28T14:39:20.662Z,1.00
2023-01-28T14:41:48.869Z,0.90
2023-01-28T14:44:35.725Z,0.90
2023-01-28T14:47:21.150Z,0.90
2023-01-28T14:49:53.840Z,0.90
2023-01-28T14:52:26.848Z,0.80
2023-01-28T14:55:01.612Z,0.80
2023-01-28T14:57:41.119Z,0.80
2023-01-28T15:00:28.311Z,0.80
2023-01-28T15:02:55.269Z,0.80
2023-01-28T15:05:28.876Z,0.80
2023-01-28T15:07:56.110Z,0.80
2023-01-28T15:10:35.659Z,0.80
2023-01-28T15:13:06.881Z,0.70
2023-01-28T15:15:34.898Z,0.70
2023-01-28T15:18:07.059Z,0.60
2023-01-28T15:20:34.044Z,0.60
2023-01-28T15:23:01.801Z,0.50
2023-01-28T15:25:29.320Z,0.50
2023-01-28T15:27:58.841Z,0.40
2023-01-28T15:30:27.330Z,0.40
2023-01-28T15:33:05.073Z,0.40
2023-01-28T15:35:31.999Z,0.30
2023-01-28T15:37:58.768Z,0.30
2023-01-28T15:40:28.383Z,0.30
2023-01-28T15:42:55.591Z,0.30
2023-01-28T15:45:23.434Z,0.20
2023-01-28T15:47:50.838Z,0.20
2023-01-28T15:50:22.525Z,0.10
2023-01-28T15:52:50.153Z,0.10
2023-01-28T15:55:22.957Z,0.00
2023-01-28T15:57:49.657Z,0.00
2023-01-28T16:00:19.908Z,0.00
2023-01-28T16:02:54.480Z,-0.10
2023-01-28T16:05:29.061Z,-0.10
2023-01-28T16:07:57.035Z,-0.20
2023-01-28T16:10:25.980Z,-0.20
2023-01-28T16:12:54.337Z,-0.30
2023-01-28T16:15:21.942Z,-0.30
2023-01-28T16:17:50.110Z,-0.30
2023-01-28T16:20:24.631Z,-0.30
2023-01-28T16:22:51.606Z,-0.30
2023-01-28T16:25:21.361Z,-0.30
2023-01-28T16:27:48.449Z,-0.30
2023-01-28T16:30:15.769Z,-0.30
2023-01-28T16:32:42.830Z,-0.30
2023-01-28T16:35:19.240Z,-0.40
2023-01-28T16:37:46.526Z,-0.40
2023-01-28T16:40:14.737Z,-0.40
2023-01-28T16:42:41.664Z,-0.40
2023-01-28T16:45:14.143Z,-0.40
2023-01-28T16:47:40.971Z,-0.40
2023-01-28T16:50:07.877Z,-0.40
2023-01-28T16:52:34.535Z,-0.40
2023-01-28T16:55:01.169Z,-0.40
2023-01-28T16:57:27.877Z,-0.30
2023-01-28T16:59:54.539Z,-0.30
2023-01-28T17:02:21.327Z,-0.30
2023-01-28T17:04:47.961Z,-0.40
2023-01-28T17:07:14.748Z,-0.40
2023-01-28T17:09:41.358Z,-0.40
2023-01-28T17:12:08.099Z,-0.50
2023-01-28T17:14:34.760Z,-0.50
2023-01-28T17:17:01.513Z,-0.50
2023-01-28T17:19:28.205Z,-0.50
2023-01-28T17:21:54.864Z,-0.50
2023-01-28T17:24:21.521Z,-0.50
2023-01-28T17:26:51.275Z,-0.50
2023-01-28T17:29:17.999Z,-0.50
2023-01-28T17:31:44.902Z,-0.50
2023-01-28T17:34:12.347Z,-0.50
2023-01-28T17:36:38.963Z,-0.50
2023-01-28T17:39:07.464Z,-0.50
2023-01-28T17:41:34.309Z,-0.60
2023-01-28T17:44:01.268Z,-0.60
2023-01-28T17:46:27.948Z,-0.60
2023-01-28T17:48:54.618Z,-0.60
2023-01-28T17:51:21.267Z,-0.70
2023-01-28T17:53:49.208Z,-0.70
2023-01-28T17:56:20.307Z,-0.70
2023-01-28T17:58:50.971Z,-0.70
2023-01-28T18:01:17.688Z,-0.70
2023-01-28T18:03:44.521Z,-0.70
2023-01-28T18:06:11.340Z,-0.70
2023-01-28T18:08:38.063Z,-0.70
2023-01-28T18:11:08.994Z,-0.80
2023-01-28T18:13:37.024Z,-0.80
2023-01-28T18:16:04.357Z,-0.80
2023-01-28T18:18:31.114Z,-0.80
2023-01-28T18:20:58.839Z,-0.80
2023-01-28T18:23:25.632Z,-0.80
2023-01-28T18:25:56.009Z,-0.80
2023-01-28T18:28:22.741Z,-0.80
2023-01-28T18:30:49.567Z,-0.80
2023-01-28T18:33:16.226Z,-0.80
2023-01-28T18:35:43.506Z,-0.80
2023-01-28T18:38:10.575Z,-0.80
2023-01-28T18:40:37.399Z,-0.80
2023-01-28T18:43:04.066Z,-0.80
2023-01-28T18:45:30.972Z,-0.80
2023-01-28T18:47:58.003Z,-0.80
2023-01-28T18:50:24.700Z,-0.80
2023-01-28T18:52:53.720Z,-0.80
2023-01-28T18:55:24.369Z,-0.80
2023-01-28T18:57:51.087Z,-0.80
2023-01-28T19:00:17.991Z,-0.80
2023-01-28T19:02:44.680Z,-0.80
2023-01-28T19:05:12.333Z,-0.80
2023-01-28T19:07:39.015Z,-0.80
2023-01-28T19:10:05.911Z,-0.80
2023-01-28T19:12:32.554Z,-0.80
2023-01-28T19:14:59.240Z,-0.80
2023-01-28T19:17:26.065Z,-0.80
2023-01-28T19:19:52.791Z,-0.80
2023-01-28T19:22:19.564Z,-0.80
2023-01-28T19:24:46.432Z,-0.80
2023-01-28T19:27:13.082Z,-0.80
2023-01-28T19:29:39.917Z,-0.90
2023-01-28T19:32:06.713Z,-0.90
2023-01-28T19:34:33.405Z,-0.90
2023-01-28T19:37:00.080Z,-0.90
2023-01-28T19:39:26.758Z,-0.90
2023-01-28T19:41:53.950Z,-0.90
2023-01-28T19:44:20.689Z,-0.90
2023-01-28T19:46:48.659Z,-0.90
2023-01-28T19:49:15.654Z,-0.90
2023-01-28T19:51:42.331Z,-0.90
2023-01-28T19:54:09.750Z,-0.90
2023-01-28T19:56:37.540Z,-0.90
2023-01-28T19:59:04.558Z,-0.90
2023-01-28T20:01:31.632Z,-0.90
2023-01-28T20:03:59.462Z,-0.90
2023-01-28T20:06:27.644Z,-0.90
2023-01-28T20:08:55.476Z,-1.00
2023-01-28T20:11:23.365Z,-1.00
2023-01-28T20:13:51.716Z,-1.00
2023-01-28T20:16:21.521Z,-1.00
2023-01-28T20:18:57.612Z,-1.00
2023-01-28T20:21:26.833Z,-1.00
2023-01-28T20:23:54.547Z,-1.10
2023-01-28T20:26:23.171Z,-1.10
2023-01-28T20:28:50.375Z,-1.10
2023-01-28T20:31:17.621Z,-1.10
2023-01-28T20:33:44.339Z,-1.10
2023-01-28T20:36:11.782Z,-1.10
2023-01-28T20:38:41.661Z,-1.20
2023-01-28T20:41:11.092Z,-1.30
2023-01-28T20:43:38.599Z,-1.40
2023-01-28T20:46:06.307Z,-1.40
2023-01-28T20:48:33.574Z,-1.50
2023-01-28T20:51:10.841Z,-1.50
2023-01-28T20:53:37.928Z,-1.60
2023-01-28T20:56:05.127Z,-1.70
2023-01-28T20:58:33.190Z,-1.70
2023-01-28T21:01:00.059Z,-1.70
2023-01-28T21:03:26.782Z,-1.70
2023-01-28T21:05:53.601Z,-1.70
2023-01-28T21:08:20.322Z,-1.70
2023-01-28T21:10:46.998Z,-1.70
2023-01-28T21:13:14.618Z,-1.80
2023-01-28T21:15:41.624Z,-1.80
2023-01-28T21:18:08.748Z,-1.80
2023-01-28T21:20:35.479Z,-1.90
2023-01-28T21:23:02.188Z,-1.90
2023-01-28T21:25:28.886Z,-2.00
2023-01-28T21:27:55.548Z,-2.00
2023-01-28T21:30:22.171Z,-2.10
2023-01-28T21:32:48.821Z,-2.10
2023-01-28T21:35:15.487Z,-2.20
2023-01-28T21:37:46.038Z,-2.30
2023-01-28T21:40:12.887Z,-2.40
2023-01-28T21:42:39.591Z,-2.50
2023-01-28T21:45:06.663Z,-2.50
2023-01-28T21:47:33.644Z,-2.60
2023-01-28T21:50:00.739Z,-2.60
2023-01-28T21:52:27.631Z,-2.70
2023-01-28T21:54:54.271Z,-2.70
2023-01-28T21:57:20.936Z,-2.70
2023-01-28T21:59:47.769Z,-2.70
2023-01-28T22:02:15.806Z,-2.70
2023-01-28T22:04:43.636Z,-2.80
2023-01-28T22:07:12.891Z,-2.70
2023-01-28T22:09:39.977Z,-2.70
2023-01-28T22:12:07.967Z,-2.80
2023-01-28T22:14:35.279Z,-2.70
2023-01-28T22:17:02.448Z,-2.80
2023-01-28T22:19:29.163Z,-2.80
2023-01-28T22:21:55.933Z,-2.80
2023-01-28T22:24:24.558Z,-2.80
2023-01-28T22:26:52.166Z,-2.80
2023-01-28T22:29:19.663Z,-2.80
2023-01-28T22:31:47.028Z,-2.90
2023-01-28T22:34:14.103Z,-2.90
2023-01-28T22:36:40.802Z,-2.90
2023-01-28T22:39:08.432Z,-3.00
2023-01-28T22:41:35.264Z,-3.00
2023-01-28T22:44:03.715Z,-3.00
2023-01-28T22:46:32.200Z,-3.10
2023-01-28T22:48:59.706Z,-3.10
2023-01-28T22:51:27.897Z,-3.10
2023-01-28T22:53:54.812Z,-3.10
2023-01-28T22:56:22.892Z,-3.10
2023-01-28T22:58:53.543Z,-3.10
2023-01-28T23:01:20.320Z,-3.10
2023-01-28T23:03:47.609Z,-3.10
2023-01-28T23:06:16.612Z,-3.10
2023-01-28T23:08:43.852Z,-3.10
2023-01-28T23:11:25.573Z,-3.10
2023-01-28T23:14:12.496Z,-3.10
2023-01-28T23:16:57.986Z,-3.10
2023-01-28T23:19:43.570Z,-3.20
2023-01-28T23:22:40.829Z,-3.20
2023-01-28T23:25:07.889Z,-3.20
2023-01-28T23:27:34.660Z,-3.20
2023-01-28T23:30:01.414Z,-3.30
2023-01-28T23:32:28.236Z,-3.30
2023-01-28T23:34:54.906Z,-3.30
2023-01-28T23:37:21.644Z,-3.30
2023-01-28T23:39:48.303Z,-3.30
2023-01-28T23:42:16.362Z,-3.40
2023-01-28T23:44:43.029Z,-3.40
2023-01-28T23:47:10.424Z,-3.30
2023-01-28T23:49:37.918Z,-3.30
2023-01-28T23:52:05.534Z,-3.20
2023-01-28T23:54:32.545Z,-3.20
2023-01-28T23:56:59.600Z,-3.20
2023-01-28T23:59:26.243Z,-3.20
